Latest Weather Observations for Tatura

IDV60801

Issued at 6:35 pm EDT Monday 24 November 2014 (issued every 30 minutes, with the page automatically refreshed every 10 minutes)

About weather observations | Map of weather stations | Latest weather observations for VIC | Other Formats
Station Details ID: 081049 Name: TATURA INST SUSTAINABLE AG Lat: -36.44 Lon: 145.27 Height: 114.0 m
Data from the previous 72 hours. | See also: Recent months at Tatura
Date/Time
EDT
Temp
°C
App
Temp
°C
Dew
Point
Rel
Hum
%
Delta-T
°C
Wind Press
QNH
hPa
Press
MSL
hPa
Rain
since 9 am
mm
Dir
 
Spd
km/h
Gust
km/h
Spd
kts
Gust
kts
24/06:30pm 18.9 21.2 16.7 87 1.3 SSE 0 6 0 3 - - 8.8
24/06:00pm 19.2 19.3 16.6 85 1.6 E 11 15 6 8 - - 8.2
24/05:30pm 19.4 20.3 16.6 84 1.7 ESE 7 11 4 6 - - 8.2
24/05:00pm 19.5 20.8 17.1 86 1.5 SW 6 13 3 7 - - 8.2
24/04:30pm 18.5 18.7 16.8 90 1.0 NNE 11 13 6 7 - - 8.2
24/04:00pm 17.3 17.8 15.5 89 1.1 NNE 7 13 4 7 - - 8.2
24/03:30pm 17.1 16.3 15.1 88 1.2 WNW 13 20 7 11 - - 7.2
24/03:18pm 17.3 12.0 14.2 82 1.8 W 35 54 19 29 - - 5.0
24/03:17pm 17.5 11.7 14.0 80 2.0 W 37 54 20 29 - - 4.6
24/03:16pm 19.2 11.0 12.9 67 3.6 W 48 82 26 44 - - 0.8
24/03:14pm 19.2 8.9 12.9 67 3.6 WSW 59 78 32 42 - - 0.8
24/03:12pm 25.1 19.6 14.6 52 6.3 W 37 82 20 44 - - 0.0
24/03:00pm 27.2 25.1 15.2 47 7.3 N 20 35 11 19 - - 0.0
24/02:30pm 27.5 24.4 15.5 48 7.4 NNW 26 43 14 23 - - 0.0
24/02:00pm 29.0 24.3 14.8 42 8.7 N 33 44 18 24 - - 0.0
24/01:35pm 27.9 23.2 14.2 43 8.2 N 32 50 17 27 - - 0.0
24/01:30pm 28.2 23.9 14.4 42 8.3 N 30 44 16 24 - - 0.0
24/01:00pm 27.7 24.2 15.4 47 7.5 N 28 39 15 21 - - 0.0
24/12:30pm 27.2 25.0 15.9 50 7.0 NNW 22 33 12 18 - - 0.0
24/12:00pm 25.4 22.5 15.1 53 6.2 NW 24 33 13 18 - - 0.0
24/11:30am 25.2 22.3 15.2 54 6.0 NNW 24 37 13 20 - - 0.0
24/11:00am 25.1 22.5 14.8 52 6.2 NW 22 32 12 17 - - 0.0
24/10:30am 24.9 22.2 14.7 53 6.1 NNW 22 32 12 17 - - 0.0
24/10:00am 24.9 21.7 13.1 48 6.9 N 22 35 12 19 - - 0.0
24/09:30am 24.3 21.9 12.6 48 6.8 N 17 24 9 13 - - 0.0
24/09:00am 23.7 20.9 11.4 46 6.9 N 17 24 9 13 - - 0.2
24/08:30am 21.9 20.1 10.7 49 6.2 NNE 11 17 6 9 - - 0.2
24/08:00am 20.4 18.4 10.2 52 5.5 NE 11 17 6 9 - - 0.2
24/07:30am 20.0 18.8 10.4 54 5.2 NNE 7 11 4 6 - - 0.2
24/07:00am 20.1 18.4 9.7 51 5.6 ENE 9 13 5 7 - - 0.2
24/06:30am 20.0 17.8 9.3 50 5.7 NE 11 17 6 9 - - 0.2
24/06:00am 19.7 17.4 9.0 50 5.7 NE 11 13 6 7 - - 0.2
24/05:30am 19.2 17.5 9.9 55 5.0 NE 9 13 5 7 - - 0.2
24/05:00am 17.2 18.0 12.5 74 2.6 CALM 0 0 0 0 - - 0.2
24/04:30am 17.9 17.3 11.7 67 3.4 NE 6 7 3 4 - - 0.2
24/04:00am 17.8 18.4 11.8 68 3.3 CALM 0 6 0 3 - - 0.2
24/03:30am 18.0 17.5 12.2 69 3.2 E 6 11 3 6 - - 0.2
24/03:00am 18.0 18.2 12.0 68 3.3 E 2 7 1 4 - - 0.2
24/02:30am 18.4 17.4 13.3 72 2.9 ENE 11 15 6 8 - - 0.2
24/02:00am 17.1 18.1 13.2 78 2.2 CALM 0 0 0 0 - - 0.2
24/01:30am 18.1 19.0 12.8 71 3.0 CALM 0 6 0 3 - - 0.2
24/01:00am 19.8 19.6 13.0 65 3.9 SE 6 11 3 6 - - 0.2
24/12:30am 20.3 18.8 11.8 58 4.7 SSE 11 20 6 11 - - 0.2
24/12:00am 20.6 19.4 11.5 56 5.1 NE 9 13 5 7 - - 0.2
 
Date/Time
EDT
Temp
°C
App
Temp
°C
Dew
Point
Rel
Hum
%
Delta-T
°C
Wind Press
QNH
hPa
Press
MSL
hPa
Rain
since 9 am
mm
Dir
 
Spd
km/h
Gust
km/h
Spd
kts
Gust
kts
23/11:30pm 22.6 21.8 9.7 44 7.0 S 4 9 2 5 - - 0.2
23/11:00pm 23.5 20.4 7.2 35 8.5 W 13 17 7 9 - - 0.2
23/10:30pm 22.9 21.8 7.0 36 8.3 NW 2 7 1 4 - - 0.2
23/10:00pm 23.4 20.3 7.1 35 8.5 NW 13 17 7 9 - - 0.2
23/09:30pm 23.3 20.0 8.2 38 8.0 NW 15 19 8 10 - - 0.2
23/09:00pm 22.6 22.3 8.7 41 7.4 CALM 0 0 0 0 - - 0.2
23/08:30pm 24.5 23.5 5.8 30 9.6 CALM 0 0 0 0 - - 0.2
23/08:00pm 26.4 22.8 4.8 25 11.0 W 13 17 7 9 - - 0.2
23/07:30pm 27.4 24.1 6.2 26 11.1 WNW 13 19 7 10 - - 0.2
23/07:00pm 28.3 24.5 7.5 27 11.2 WNW 17 24 9 13 - - 0.2
23/06:30pm 28.7 23.9 7.3 26 11.5 WNW 22 33 12 18 - - 0.2
23/06:00pm 29.7 24.2 7.6 25 12.0 W 26 35 14 19 - - 0.2
23/05:30pm 30.6 25.3 10.0 28 11.7 W 28 35 15 19 - - 0.2
23/05:00pm 31.4 27.6 11.2 29 11.8 WNW 22 33 12 18 - - 0.2
23/04:30pm 31.3 27.3 11.7 30 11.5 NW 24 35 13 19 - - 0.2
23/04:00pm 31.4 28.7 11.7 29 11.6 NW 17 33 9 18 - - 0.2
23/03:30pm 30.8 28.2 13.1 34 10.6 WNW 19 30 10 16 - - 0.2
23/03:00pm 30.5 28.2 12.9 34 10.5 W 17 28 9 15 - - 0.2
23/02:30pm 30.8 28.1 11.7 31 11.2 NW 17 24 9 13 - - 0.2
23/02:00pm 30.3 27.3 13.6 36 10.1 W 22 28 12 15 - - 0.2
23/01:30pm 29.2 27.9 12.6 36 9.8 WNW 11 17 6 9 - - 0.2
23/01:00pm 28.7 28.4 12.6 37 9.5 NNW 6 15 3 8 - - 0.2
23/12:30pm 28.2 28.2 15.1 44 8.0 SSW 9 17 5 9 - - 0.2
23/12:00pm 27.4 27.7 16.1 50 7.0 NE 9 13 5 7 - - 0.2
23/11:30am 26.3 26.2 15.0 49 6.8 ENE 9 15 5 8 - - 0.2
23/11:00am 25.7 26.7 16.3 56 5.8 NE 6 11 3 6 - - 0.2
23/10:30am 25.2 26.1 16.1 57 5.6 E 6 9 3 5 - - 0.2
23/10:00am 23.7 24.6 16.5 64 4.4 SSE 7 11 4 6 - - 0.0
23/09:30am 23.0 23.9 16.1 65 4.2 SE 6 9 3 5 - - 0.0
23/09:00am 21.8 22.9 17.0 74 3.0 SSE 7 11 4 6 - - 4.6
23/08:30am 20.6 21.3 16.2 76 2.7 SSE 7 9 4 5 - - 4.6
23/08:00am 19.7 20.5 16.3 81 2.0 SSE 7 9 4 5 - - 4.6
23/07:30am 18.6 18.5 16.0 85 1.6 SSE 11 13 6 7 - - 4.6
23/07:00am 17.8 17.7 16.0 89 1.1 SSE 11 13 6 7 - - 4.6
23/06:30am 17.1 16.9 15.6 91 0.9 SSE 11 15 6 8 - - 4.6
23/06:00am 16.4 15.9 14.9 91 0.9 SSE 11 13 6 7 - - 4.6
23/05:30am 16.3 15.7 14.7 90 0.9 SSE 11 13 6 7 - - 4.6
23/05:00am 16.4 16.8 14.8 90 0.9 SSE 6 9 3 5 - - 4.6
23/04:30am 16.8 18.5 15.2 90 0.9 CALM 0 0 0 0 - - 4.6
23/04:00am 16.6 18.2 14.8 89 1.0 CALM 0 0 0 0 - - 4.6
23/03:30am 16.9 18.6 15.1 89 1.0 CALM 0 0 0 0 - - 4.6
23/03:00am 17.3 17.8 15.5 89 1.1 N 7 11 4 6 - - 4.6
23/02:30am 17.5 18.1 15.7 89 1.1 NNE 7 11 4 6 - - 4.6
23/02:00am 17.1 18.5 15.3 89 1.1 E 2 7 1 4 - - 4.6
23/01:30am 17.5 18.9 15.5 88 1.2 ENE 2 7 1 4 - - 4.6
23/01:00am 17.9 18.5 15.9 88 1.2 ENE 7 11 4 6 - - 4.6
23/12:30am 18.0 19.5 15.8 87 1.3 NE 2 7 1 4 - - 4.6
23/12:00am 18.3 18.6 16.1 87 1.3 NE 9 15 5 8 - - 4.4
 
Date/Time
EDT
Temp
°C
App
Temp
°C
Dew
Point
Rel
Hum
%
Delta-T
°C
Wind Press
QNH
hPa
Press
MSL
hPa
Rain
since 9 am
mm
Dir
 
Spd
km/h
Gust
km/h
Spd
kts
Gust
kts
22/11:30pm 18.7 19.7 16.3 86 1.4 ENE 6 11 3 6 - - 3.6
22/11:00pm 18.7 18.9 15.8 83 1.7 SSE 9 11 5 6 - - 3.4
22/10:30pm 19.4 19.7 15.9 80 2.1 SSW 9 22 5 12 - - 3.2
22/10:00pm 19.9 18.5 15.5 76 2.6 W 17 28 9 15 - - 3.0
22/09:30pm 19.5 18.1 15.6 78 2.3 WNW 17 22 9 12 - - 2.8
22/09:18pm 19.8 16.3 15.4 76 2.6 WNW 28 46 15 25 - - 2.0
22/09:00pm 19.5 17.4 15.2 76 2.5 N 20 26 11 14 - - 1.0
22/08:30pm 22.2 20.7 13.0 56 5.3 NW 13 20 7 11 - - 0.0
22/08:00pm 22.8 19.9 12.4 52 5.9 NNW 19 26 10 14 - - 0.0
22/07:30pm 24.8 20.4 10.3 40 8.1 WNW 24 37 13 20 - - 0.0
22/07:07pm 26.6 20.6 8.6 32 9.8 NW 30 48 16 26 - - 0.0
22/07:05pm 26.6 20.6 8.6 32 9.8 NW 30 48 16 26 - - 0.0
22/07:00pm 26.8 19.8 8.3 31 10.0 NW 35 50 19 27 - - 0.0
22/06:43pm 27.9 19.5 7.2 27 11.1 NW 41 54 22 29 - - 0.0
22/06:41pm 27.9 19.1 7.2 27 11.1 NW 43 54 23 29 - - 0.0
22/06:30pm 28.7 23.4 4.9 22 12.3 NW 22 35 12 19 - - 0.0
22/06:00pm 28.9 24.9 5.1 22 12.4 NW 15 20 8 11 - - 0.0
22/05:30pm 29.8 25.3 4.4 20 13.1 NNW 17 26 9 14 - - 0.0
22/05:00pm 30.5 26.4 4.3 19 13.6 NNW 15 24 8 13 - - 0.0
22/04:30pm 30.5 25.3 3.5 18 13.8 NNW 20 28 11 15 - - 0.0
22/04:00pm 30.5 25.6 4.3 19 13.6 N 19 26 10 14 - - 0.0
22/03:30pm 29.9 27.5 5.2 21 12.9 N 7 11 4 6 - - 0.0
22/03:00pm 28.6 25.0 4.8 22 12.3 N 13 19 7 10 - - 0.0
22/02:30pm 27.3 22.2 6.1 26 11.1 NNE 22 32 12 17 - - 0.0
22/02:00pm 28.4 25.0 4.0 21 12.4 NNE 11 17 6 9 - - 0.0
22/01:30pm 28.3 26.5 5.2 23 12.0 SSW 4 9 2 5 - - 0.0
22/01:00pm 28.7 26.7 7.3 26 11.5 WNW 7 20 4 11 - - 0.0
22/12:30pm 28.4 24.6 4.0 21 12.4 WNW 13 22 7 12 - - 0.0
22/12:00pm 27.8 23.8 2.8 20 12.4 WNW 13 20 7 11 - - 0.0
22/11:30am 27.1 24.5 6.0 26 11.0 NNE 9 15 5 8 - - 0.0
22/11:00am 26.4 22.8 4.8 25 11.0 NNE 13 19 7 10 - - 0.0
22/10:30am 25.5 21.1 4.6 26 10.6 NNE 17 24 9 13 - - 0.0
22/10:00am 24.5 21.0 5.3 29 9.8 NNE 13 19 7 10 - - 0.0
22/09:30am 23.2 20.7 8.1 38 8.0 NE 11 13 6 7 - - 0.0
22/09:00am 21.1 17.8 6.6 39 7.4 NE 13 19 7 10 - - 0.0
22/08:30am 20.2 17.7 8.2 46 6.3 ENE 11 15 6 8 - - 0.0
22/08:00am 17.3 15.4 9.0 58 4.3 E 9 11 5 6 - - 0.0
22/07:30am 14.7 12.7 8.6 67 3.1 E 9 11 5 6 - - 0.0
22/07:00am 12.0 11.6 9.6 85 1.2 ESE 2 7 1 4 - - 0.0
22/06:30am 10.3 9.9 8.2 87 1.0 CALM 0 0 0 0 - - 0.0
22/06:00am 10.3 9.9 8.1 86 1.1 CALM 0 6 0 3 - - 0.0
22/05:30am 10.6 10.3 8.7 88 0.9 CALM 0 0 0 0 - - 0.0
22/05:00am 9.8 9.2 7.6 86 1.1 CALM 0 0 0 0 - - 0.0
22/04:30am 10.2 9.4 8.0 86 1.1 SSE 2 6 1 3 - - 0.0
22/04:00am 10.0 9.4 7.4 84 1.2 CALM 0 0 0 0 - - 0.0
22/03:30am 10.5 9.9 7.6 82 1.4 CALM 0 0 0 0 - - 0.0
22/03:00am 10.9 10.3 7.6 80 1.6 CALM 0 0 0 0 - - 0.0
22/02:30am 11.2 10.6 7.3 77 1.9 CALM 0 0 0 0 - - 0.0
22/02:00am 11.8 11.1 7.1 73 2.3 CALM 0 0 0 0 - - 0.0
22/01:30am 13.1 12.4 6.9 66 3.0 CALM 0 0 0 0 - - 0.0
22/01:00am 14.4 13.3 6.7 60 3.8 WSW 2 6 1 3 - - 0.0
22/12:30am 16.1 14.2 4.8 47 5.4 W 4 7 2 4 - - 0.0
22/12:00am 17.3 14.5 5.3 45 5.8 WNW 9 11 5 6 - - 0.0
 
Date/Time
EDT
Temp
°C
App
Temp
°C
Dew
Point
Rel
Hum
%
Delta-T
°C
Wind Press
QNH
hPa
Press
MSL
hPa
Rain
since 9 am
mm
Dir
 
Spd
km/h
Gust
km/h
Spd
kts
Gust
kts
21/11:30pm 18.3 15.2 5.5 43 6.3 NW 11 17 6 9 - - 0.0
21/11:00pm 15.8 13.8 8.5 62 3.7 NW 9 11 5 6 - - 0.0
21/10:30pm 15.5 13.6 9.2 66 3.3 NNW 9 11 5 6 - - 0.0
21/10:00pm 16.5 16.4 9.4 63 3.7 CALM 0 0 0 0 - - 0.0
21/09:30pm 16.9 17.2 11.0 68 3.2 CALM 0 0 0 0 - - 0.0
21/09:00pm 17.6 17.0 7.6 52 5.1 CALM 0 0 0 0 - - 0.0
21/08:30pm 19.9 18.6 4.0 35 7.6 CALM 0 0 0 0 - - 0.0
21/08:00pm 23.5 21.7 3.4 27 9.8 WSW 2 7 1 4 - - 0.0
21/07:30pm 24.2 21.0 2.9 25 10.3 W 9 13 5 7 - - 0.0
21/07:00pm 26.3 22.1 1.6 20 11.9 WSW 13 19 7 10 - - 0.0

Other Formats:

Comma delimited format used in spreadsheet applications
http://www.bom.gov.au/fwo/IDV60801/IDV60801.95836.axf

JavaScript Object Notation format (JSON) in row-major order
http://www.bom.gov.au/fwo/IDV60801/IDV60801.95836.json